createdAt,value
2023-03-28T00:01:46.717Z,1.90
2023-03-28T00:04:13.499Z,1.93
2023-03-28T00:06:40.702Z,2.40
2023-03-28T00:09:07.965Z,2.10
2023-03-28T00:11:35.116Z,2.00
2023-03-28T00:14:01.921Z,1.83
2023-03-28T00:16:32.818Z,1.77
2023-03-28T00:19:01.261Z,1.53
2023-03-28T00:21:30.505Z,1.67
2023-03-28T00:23:59.224Z,1.90
2023-03-28T00:26:26.139Z,2.40
2023-03-28T00:28:53.649Z,2.10
2023-03-28T00:31:21.050Z,2.10
2023-03-28T00:33:49.462Z,2.33
2023-03-28T00:36:17.626Z,2.07
2023-03-28T00:38:44.284Z,1.50
2023-03-28T00:41:11.648Z,2.10
2023-03-28T00:43:40.987Z,1.83
2023-03-28T00:46:15.350Z,1.90
2023-03-28T00:48:51.122Z,2.10
2023-03-28T00:51:21.849Z,1.80
2023-03-28T00:53:49.486Z,2.50
2023-03-28T00:56:18.068Z,1.97
2023-03-28T00:58:47.503Z,1.97
2023-03-28T01:01:16.325Z,2.20
2023-03-28T01:03:46.947Z,2.23
2023-03-28T01:06:16.187Z,1.57
2023-03-28T01:08:45.699Z,1.80
2023-03-28T01:11:13.564Z,1.50
2023-03-28T01:13:44.250Z,1.37
2023-03-28T01:16:11.987Z,1.60
2023-03-28T01:18:39.071Z,1.00
2023-03-28T01:21:28.675Z,2.20
2023-03-28T01:24:43.151Z,2.70
2023-03-28T01:27:14.859Z,2.63
2023-03-28T01:29:59.014Z,1.73
2023-03-28T01:33:17.062Z,2.07
2023-03-28T01:36:12.271Z,2.07
2023-03-28T01:39:06.427Z,1.70
2023-03-28T01:41:41.919Z,2.60
2023-03-28T01:44:17.023Z,2.93
2023-03-28T01:46:49.630Z,2.17
2023-03-28T01:49:27.848Z,2.00
2023-03-28T01:51:59.673Z,2.57
2023-03-28T01:54:33.032Z,2.60
2023-03-28T01:57:06.501Z,1.37
2023-03-28T01:59:37.777Z,2.00
2023-03-28T02:02:09.955Z,2.10
2023-03-28T02:04:39.071Z,2.17
2023-03-28T02:07:06.317Z,1.60
2023-03-28T02:09:37.525Z,1.90
2023-03-28T02:12:09.240Z,1.80
2023-03-28T02:14:40.832Z,1.57
2023-03-28T02:17:10.568Z,2.07
2023-03-28T02:19:38.503Z,2.57
2023-03-28T02:22:12.447Z,1.63
2023-03-28T02:24:40.792Z,1.90
2023-03-28T02:27:07.607Z,2.30
2023-03-28T02:29:35.193Z,2.40
2023-03-28T02:32:01.939Z,1.80
2023-03-28T02:34:28.869Z,2.33
2023-03-28T02:37:10.464Z,2.40
2023-03-28T02:39:47.928Z,2.00
2023-03-28T02:42:40.271Z,2.80
2023-03-28T02:45:23.613Z,1.43
2023-03-28T02:48:00.978Z,1.73
2023-03-28T02:50:35.468Z,1.60
2023-03-28T02:53:07.162Z,2.03
2023-03-28T02:55:41.649Z,1.90
2023-03-28T02:58:13.477Z,2.17
2023-03-28T03:00:40.253Z,2.77
2023-03-28T03:03:08.485Z,2.27
2023-03-28T03:05:35.227Z,2.50
2023-03-28T03:08:02.137Z,2.50
2023-03-28T03:10:28.956Z,2.77
2023-03-28T03:12:57.002Z,2.30
2023-03-28T03:15:24.050Z,2.50
2023-03-28T03:17:50.699Z,3.60
2023-03-28T03:20:17.400Z,3.23
2023-03-28T03:22:44.398Z,3.77
2023-03-28T03:25:13.867Z,3.40
2023-03-28T03:27:41.242Z,2.50
2023-03-28T03:30:10.799Z,2.83
2023-03-28T03:32:37.529Z,2.20
2023-03-28T03:35:04.976Z,3.17
2023-03-28T03:37:31.625Z,3.87
2023-03-28T03:39:58.301Z,2.50
2023-03-28T03:42:24.988Z,3.40
2023-03-28T03:44:51.725Z,2.90
2023-03-28T03:47:19.756Z,3.20
2023-03-28T03:49:46.404Z,3.20
2023-03-28T03:52:13.050Z,2.83
2023-03-28T03:54:39.701Z,4.00
2023-03-28T03:57:06.587Z,2.50
2023-03-28T03:59:33.472Z,2.60
2023-03-28T04:02:00.418Z,3.17
2023-03-28T04:04:29.045Z,3.03
2023-03-28T04:06:55.752Z,3.20
2023-03-28T04:09:22.535Z,2.63
2023-03-28T04:11:49.216Z,2.87
2023-03-28T04:14:15.979Z,3.67
2023-03-28T04:16:42.647Z,2.63
2023-03-28T04:19:10.143Z,3.47
2023-03-28T04:21:39.070Z,2.63
2023-03-28T04:24:06.560Z,2.30
2023-03-28T04:26:33.190Z,3.77
2023-03-28T04:28:59.965Z,2.67
2023-03-28T04:31:26.705Z,2.93
2023-03-28T04:33:53.387Z,3.40
2023-03-28T04:36:20.472Z,2.70
2023-03-28T04:38:48.817Z,3.57
2023-03-28T04:41:15.482Z,2.57
2023-03-28T04:43:42.368Z,4.27
2023-03-28T04:46:09.543Z,3.00
2023-03-28T04:48:36.394Z,2.27
2023-03-28T04:51:03.445Z,3.07
2023-03-28T04:53:30.071Z,3.30
2023-03-28T04:55:58.161Z,2.70
2023-03-28T04:58:25.111Z,2.37
2023-03-28T05:00:52.803Z,2.37
2023-03-28T05:03:21.086Z,2.53
2023-03-28T05:05:49.714Z,2.83
2023-03-28T05:08:18.746Z,2.90
2023-03-28T05:10:46.201Z,2.70
2023-03-28T05:13:14.836Z,2.80
2023-03-28T05:15:41.490Z,4.10
2023-03-28T05:18:08.668Z,3.30
2023-03-28T05:20:35.635Z,3.10
2023-03-28T05:23:02.739Z,3.00
2023-03-28T05:25:29.614Z,3.50
2023-03-28T05:27:56.296Z,3.10
2023-03-28T05:30:24.425Z,3.33
2023-03-28T05:32:51.114Z,2.70
2023-03-28T05:35:17.914Z,2.70
2023-03-28T05:37:46.925Z,3.30
2023-03-28T05:40:14.250Z,3.10
2023-03-28T05:42:41.230Z,2.57
2023-03-28T05:45:42.031Z,2.80
2023-03-28T05:48:49.454Z,2.73
2023-03-28T05:51:17.934Z,2.77
2023-03-28T05:53:44.804Z,3.00
2023-03-28T05:56:11.505Z,3.33
2023-03-28T05:58:38.185Z,3.80
2023-03-28T06:01:05.203Z,3.07
2023-03-28T06:03:32.090Z,3.07
2023-03-28T06:05:58.876Z,3.87
2023-03-28T06:08:26.973Z,2.67
2023-03-28T06:10:53.809Z,2.60
2023-03-28T06:13:20.507Z,3.70
2023-03-28T06:15:47.227Z,3.37
2023-03-28T06:18:14.016Z,3.43
2023-03-28T06:20:40.800Z,3.03
2023-03-28T06:23:07.534Z,2.80
2023-03-28T06:25:35.588Z,2.77
2023-03-28T06:28:02.309Z,2.80
2023-03-28T06:30:28.981Z,3.27
2023-03-28T06:32:55.680Z,3.20
2023-03-28T06:35:22.513Z,3.07
2023-03-28T06:37:49.269Z,3.20
2023-03-28T06:40:16.205Z,3.47
2023-03-28T06:42:44.237Z,2.67
2023-03-28T06:45:11.636Z,2.23
2023-03-28T06:47:38.309Z,2.80
2023-03-28T06:50:05.783Z,3.30
2023-03-28T06:52:32.446Z,3.00
2023-03-28T06:54:59.403Z,2.90
2023-03-28T06:57:26.340Z,2.60
2023-03-28T06:59:54.323Z,3.10
2023-03-28T07:02:21.215Z,2.83
2023-03-28T07:04:48.048Z,3.50
2023-03-28T07:07:14.970Z,3.70
2023-03-28T07:09:41.733Z,3.13
2023-03-28T07:12:08.414Z,3.10
2023-03-28T07:14:35.189Z,3.27
2023-03-28T07:17:03.277Z,3.63
2023-03-28T07:19:30.112Z,3.60
2023-03-28T07:21:56.795Z,2.90
2023-03-28T07:24:23.461Z,2.30
2023-03-28T07:26:50.160Z,2.90
2023-03-28T07:29:16.803Z,2.60
2023-03-28T07:31:43.575Z,3.40
2023-03-28T07:34:11.623Z,3.23
2023-03-28T07:36:38.308Z,3.07
2023-03-28T07:39:05.067Z,3.47
2023-03-28T07:41:31.818Z,2.30
2023-03-28T07:43:58.679Z,2.50
2023-03-28T07:46:25.598Z,2.63
2023-03-28T07:48:52.314Z,3.03
2023-03-28T07:51:20.320Z,2.90
2023-03-28T07:53:47.288Z,2.97
2023-03-28T07:56:14.062Z,3.77
2023-03-28T07:58:41.402Z,3.27
2023-03-28T08:01:09.811Z,3.07
2023-03-28T08:03:37.054Z,2.80
2023-03-28T08:06:06.458Z,2.67
2023-03-28T08:08:39.298Z,3.00
2023-03-28T08:11:06.637Z,2.30
2023-03-28T08:13:33.320Z,3.77
2023-03-28T08:16:00.032Z,2.23
2023-03-28T08:18:26.832Z,2.33
2023-03-28T08:20:59.242Z,2.10
2023-03-28T08:23:26.107Z,1.70
2023-03-28T08:25:59.588Z,1.70
2023-03-28T08:28:26.262Z,2.07
2023-03-28T08:30:52.954Z,2.23
2023-03-28T08:33:19.745Z,2.67
2023-03-28T08:35:46.477Z,3.57
2023-03-28T08:38:13.139Z,2.50
2023-03-28T08:40:47.626Z,3.33
2023-03-28T08:43:37.734Z,2.97
2023-03-28T08:46:04.651Z,2.90
2023-03-28T08:48:35.562Z,2.90
2023-03-28T08:51:07.514Z,3.27
2023-03-28T08:53:37.553Z,3.57
2023-03-28T08:56:06.144Z,3.50
2023-03-28T08:58:40.622Z,2.30
2023-03-28T09:01:09.894Z,3.57
2023-03-28T09:03:36.863Z,3.40
2023-03-28T09:06:19.038Z,2.60
2023-03-28T09:09:02.913Z,3.50
2023-03-28T09:11:40.624Z,3.00
2023-03-28T09:14:33.028Z,3.27
2023-03-28T09:17:09.046Z,2.77
2023-03-28T09:19:49.461Z,2.50
2023-03-28T09:22:29.853Z,1.73
2023-03-28T09:25:08.731Z,2.20
2023-03-28T09:27:39.854Z,2.67
2023-03-28T09:30:17.732Z,2.53
2023-03-28T09:32:45.295Z,2.63
2023-03-28T09:35:16.395Z,2.03
2023-03-28T09:37:48.587Z,2.53
2023-03-28T09:40:20.127Z,2.50
2023-03-28T09:42:53.765Z,2.90
2023-03-28T09:45:39.454Z,2.70
2023-03-28T09:48:11.681Z,2.37
2023-03-28T09:50:38.386Z,1.80
2023-03-28T09:53:05.144Z,3.17
2023-03-28T09:55:32.033Z,1.50
2023-03-28T09:58:04.931Z,1.97
2023-03-28T10:00:37.254Z,2.80
2023-03-28T10:03:05.475Z,1.67
2023-03-28T10:05:35.278Z,2.10
2023-03-28T10:08:05.096Z,2.77
2023-03-28T10:10:31.797Z,1.30
2023-03-28T10:13:02.041Z,2.13
2023-03-28T10:15:41.802Z,2.50
2023-03-28T10:18:15.075Z,1.93
2023-03-28T10:20:41.918Z,1.90
2023-03-28T10:23:13.105Z,2.23
2023-03-28T10:25:42.058Z,2.00
2023-03-28T10:28:15.048Z,2.40
2023-03-28T10:30:43.477Z,1.60
2023-03-28T10:33:24.690Z,2.60
2023-03-28T10:35:57.036Z,2.23
2023-03-28T10:38:26.740Z,1.70
2023-03-28T10:41:00.649Z,2.00
2023-03-28T10:43:32.969Z,2.13
2023-03-28T10:46:05.237Z,1.90
2023-03-28T10:48:34.579Z,2.60
2023-03-28T10:51:04.830Z,1.73
2023-03-28T10:53:40.630Z,2.03
2023-03-28T10:56:19.793Z,1.23
2023-03-28T10:58:54.732Z,2.13
2023-03-28T11:01:27.709Z,1.50
2023-03-28T11:04:05.430Z,2.30
2023-03-28T11:06:40.369Z,1.83
2023-03-28T11:09:16.655Z,1.80
2023-03-28T11:11:55.076Z,1.80
2023-03-28T11:14:33.510Z,2.00
2023-03-28T11:17:06.873Z,1.87
2023-03-28T11:19:46.969Z,1.83
2023-03-28T11:22:24.143Z,2.10
2023-03-28T11:28:01.083Z,1.40
2023-03-28T11:30:32.067Z,1.50
2023-03-28T11:33:08.249Z,1.93
2023-03-28T11:35:38.646Z,1.37
2023-03-28T11:38:11.528Z,2.17
2023-03-28T11:40:47.049Z,1.57
2023-03-28T11:43:21.313Z,1.60
2023-03-28T11:45:53.528Z,1.43
2023-03-28T11:48:25.765Z,1.13
2023-03-28T11:51:00.911Z,1.60
2023-03-28T11:53:32.143Z,1.63
2023-03-28T11:56:03.695Z,1.50
2023-03-28T11:58:35.437Z,1.90
2023-03-28T12:01:08.351Z,2.40
2023-03-28T12:06:16.877Z,1.17
2023-03-28T12:08:50.900Z,2.10
2023-03-28T12:11:23.740Z,1.97
2023-03-28T12:14:08.837Z,1.63
2023-03-28T12:16:43.897Z,2.23
2023-03-28T12:19:15.614Z,1.80
2023-03-28T12:21:43.892Z,2.43
2023-03-28T12:24:20.005Z,1.40
2023-03-28T12:27:01.824Z,2.07
2023-03-28T12:29:35.783Z,1.63
2023-03-28T12:32:11.364Z,2.07
2023-03-28T12:34:45.993Z,1.77
2023-03-28T12:37:18.236Z,1.97
2023-03-28T12:39:51.052Z,2.10
2023-03-28T12:42:20.410Z,1.90
2023-03-28T12:44:52.791Z,2.00
2023-03-28T12:47:23.958Z,2.10
2023-03-28T12:49:54.848Z,2.30
2023-03-28T12:52:25.334Z,1.93
2023-03-28T12:55:00.516Z,1.70
2023-03-28T12:57:44.075Z,1.63
2023-03-28T13:00:23.805Z,1.60
2023-03-28T13:02:59.607Z,1.33
2023-03-28T13:05:38.583Z,1.57
2023-03-28T13:08:14.813Z,1.70
2023-03-28T13:10:44.932Z,1.73
2023-03-28T13:13:20.558Z,1.80
2023-03-28T13:16:00.970Z,2.53
2023-03-28T13:18:29.373Z,2.20
2023-03-28T13:20:59.025Z,2.00
2023-03-28T13:23:33.250Z,2.23
2023-03-28T13:26:05.159Z,1.97
2023-03-28T13:28:42.541Z,2.70
2023-03-28T13:31:12.145Z,2.07
2023-03-28T13:33:45.688Z,2.03
2023-03-28T13:36:19.112Z,2.33
2023-03-28T13:38:47.585Z,2.37
2023-03-28T13:41:52.777Z,2.33
2023-03-28T13:44:22.638Z,2.17
2023-03-28T13:46:50.578Z,1.53
2023-03-28T13:49:19.636Z,1.20
2023-03-28T13:51:54.045Z,1.63
2023-03-28T13:54:21.059Z,1.57
2023-03-28T13:56:49.461Z,2.30
2023-03-28T13:59:18.354Z,1.57
2023-03-28T14:01:47.900Z,1.70
2023-03-28T14:04:19.625Z,2.37
2023-03-28T14:06:48.398Z,1.60
2023-03-28T14:09:19.813Z,2.37
2023-03-28T14:11:47.729Z,1.83
2023-03-28T14:14:18.265Z,1.93
2023-03-28T14:16:45.932Z,1.60
2023-03-28T14:19:20.067Z,1.80
2023-03-28T14:21:49.407Z,1.80
2023-03-28T14:24:20.010Z,4.07
2023-03-28T14:26:46.892Z,2.40
2023-03-28T14:29:15.582Z,3.13
2023-03-28T14:31:44.411Z,2.30
2023-03-28T14:34:18.229Z,2.70
2023-03-28T14:36:58.202Z,2.23
2023-03-28T14:39:25.857Z,2.63
2023-03-28T14:41:53.999Z,3.03
2023-03-28T14:44:21.258Z,2.47
2023-03-28T14:46:48.140Z,1.90
2023-03-28T14:49:19.531Z,2.70
2023-03-28T14:51:52.299Z,2.50
2023-03-28T14:54:25.161Z,2.37
2023-03-28T14:56:52.039Z,2.30
2023-03-28T14:59:19.839Z,2.70
2023-03-28T15:01:48.907Z,2.20
2023-03-28T15:04:18.841Z,1.57
2023-03-28T15:06:53.860Z,2.63
2023-03-28T15:09:28.261Z,2.60
2023-03-28T15:11:56.552Z,1.90
2023-03-28T15:14:30.640Z,2.60
2023-03-28T15:16:58.137Z,2.40
2023-03-28T15:19:27.116Z,2.07
2023-03-28T15:21:56.404Z,2.50
2023-03-28T15:24:26.445Z,2.70
2023-03-28T15:26:56.370Z,1.67
2023-03-28T15:29:23.803Z,2.57
2023-03-28T15:31:51.689Z,1.90
2023-03-28T15:34:20.852Z,2.20
2023-03-28T15:36:53.991Z,2.90
2023-03-28T15:39:26.122Z,2.00
2023-03-28T15:41:54.730Z,2.53
2023-03-28T15:44:30.518Z,2.30
2023-03-28T15:47:00.442Z,1.83
2023-03-28T15:49:27.793Z,2.00
2023-03-28T15:51:59.587Z,1.70
2023-03-28T15:54:31.849Z,2.10
2023-03-28T15:57:01.792Z,1.70
2023-03-28T15:59:34.257Z,3.10
2023-03-28T16:02:28.293Z,2.80
2023-03-28T16:04:59.832Z,3.10
2023-03-28T16:07:26.633Z,4.63
2023-03-28T16:09:54.615Z,3.07
2023-03-28T16:12:21.362Z,1.70
2023-03-28T16:14:50.058Z,2.30
2023-03-28T16:17:16.753Z,1.90
2023-03-28T16:19:43.386Z,2.60
2023-03-28T16:22:10.031Z,2.23
2023-03-28T16:24:36.713Z,3.37
2023-03-28T16:27:04.757Z,2.60
2023-03-28T16:29:31.680Z,2.60
2023-03-28T16:31:58.393Z,2.90
2023-03-28T16:34:25.142Z,3.20
2023-03-28T16:36:51.889Z,3.03
2023-03-28T16:39:18.656Z,2.63
2023-03-28T16:41:45.394Z,3.27
2023-03-28T16:44:13.419Z,3.40
2023-03-28T16:46:40.150Z,2.00
2023-03-28T16:49:06.875Z,1.90
2023-03-28T16:51:33.751Z,2.73
2023-03-28T16:54:00.649Z,2.90
2023-03-28T16:56:27.444Z,2.27
2023-03-28T16:58:54.311Z,2.53
2023-03-28T17:01:22.435Z,2.20
2023-03-28T17:03:49.931Z,3.07
2023-03-28T17:06:16.858Z,2.33
2023-03-28T17:08:43.933Z,1.63
2023-03-28T17:11:12.220Z,2.27
2023-03-28T17:13:39.941Z,2.40
2023-03-28T17:16:08.175Z,2.60
2023-03-28T17:18:36.607Z,1.97
2023-03-28T17:21:05.845Z,1.93
2023-03-28T17:23:33.585Z,2.47
2023-03-28T17:26:00.840Z,2.23
2023-03-28T17:28:29.112Z,2.27
2023-03-28T17:30:56.514Z,2.20
2023-03-28T17:33:23.396Z,2.23
2023-03-28T17:35:51.450Z,2.70
2023-03-28T17:38:18.127Z,2.60
2023-03-28T17:40:48.396Z,3.07
2023-03-28T17:43:15.323Z,2.13
2023-03-28T17:45:42.184Z,2.23
2023-03-28T17:48:08.928Z,2.63
2023-03-28T17:50:35.916Z,2.70
2023-03-28T17:53:04.024Z,2.47
2023-03-28T17:55:30.746Z,2.03
2023-03-28T17:57:57.419Z,2.57
2023-03-28T18:00:24.133Z,2.30
2023-03-28T18:02:50.893Z,3.50
2023-03-28T18:05:17.645Z,2.57
2023-03-28T18:07:44.259Z,3.67
2023-03-28T18:10:12.252Z,2.93
2023-03-28T18:12:38.910Z,2.83
2023-03-28T18:15:06.640Z,2.70
2023-03-28T18:17:33.393Z,2.70
2023-03-28T18:20:00.160Z,4.83
2023-03-28T18:22:26.843Z,3.07
2023-03-28T18:24:53.488Z,2.30
2023-03-28T18:27:21.523Z,3.87
2023-03-28T18:29:48.257Z,2.60
2023-03-28T18:32:15.002Z,5.23
2023-03-28T18:34:41.815Z,2.67
2023-03-28T18:37:08.464Z,2.97
2023-03-28T18:39:35.100Z,3.30
2023-03-28T18:42:01.840Z,3.17
2023-03-28T18:44:29.933Z,3.90
2023-03-28T18:46:56.601Z,3.63
2023-03-28T18:49:23.278Z,2.50
2023-03-28T18:51:50.116Z,3.43
2023-03-28T18:54:16.902Z,2.67
2023-03-28T18:56:43.603Z,4.40
2023-03-28T18:59:11.129Z,3.87
2023-03-28T19:01:39.241Z,4.80
2023-03-28T19:04:06.216Z,4.63
2023-03-28T19:06:35.362Z,4.03
2023-03-28T19:09:01.997Z,4.73
2023-03-28T19:11:28.651Z,2.67
2023-03-28T19:13:55.343Z,2.80
2023-03-28T19:16:22.031Z,3.00
2023-03-28T19:18:50.003Z,2.80
2023-03-28T19:21:16.898Z,3.20
2023-03-28T19:23:43.912Z,2.30
2023-03-28T19:26:12.563Z,3.20
2023-03-28T19:28:39.945Z,2.63
2023-03-28T19:31:08.576Z,2.97
2023-03-28T19:33:36.613Z,2.20
2023-03-28T19:36:05.768Z,3.13
2023-03-28T19:38:34.908Z,3.20
2023-03-28T19:41:02.816Z,3.50
2023-03-28T19:43:30.569Z,2.73
2023-03-28T19:46:01.303Z,4.07
2023-03-28T19:48:28.185Z,4.30
2023-03-28T19:50:54.831Z,3.77
2023-03-28T19:53:22.793Z,3.90
2023-03-28T19:55:53.112Z,3.17
2023-03-28T19:58:19.785Z,2.73
2023-03-28T20:00:47.655Z,3.13
2023-03-28T20:03:14.718Z,2.80
2023-03-28T20:05:41.497Z,3.00
2023-03-28T20:08:08.224Z,4.40
2023-03-28T20:10:39.921Z,3.50
2023-03-28T20:13:06.777Z,4.10
2023-03-28T20:15:33.684Z,3.97
2023-03-28T20:18:00.547Z,2.87
2023-03-28T20:20:27.282Z,4.20
2023-03-28T20:22:54.007Z,5.10
2023-03-28T20:25:20.768Z,4.57
2023-03-28T20:27:48.777Z,3.30
2023-03-28T20:30:15.717Z,3.60
2023-03-28T20:32:42.408Z,4.13
2023-03-28T20:35:09.855Z,3.40
2023-03-28T20:37:36.519Z,3.57
2023-03-28T20:40:03.275Z,4.30
2023-03-28T20:42:29.943Z,3.20
2023-03-28T20:44:58.179Z,4.50
2023-03-28T20:47:24.926Z,4.40
2023-03-28T20:49:51.823Z,3.80
2023-03-28T20:52:18.496Z,4.50
2023-03-28T20:54:45.323Z,3.77
2023-03-28T20:57:12.122Z,3.57
2023-03-28T20:59:38.836Z,4.87
2023-03-28T21:02:06.855Z,3.90
2023-03-28T21:04:33.570Z,4.40
2023-03-28T21:07:00.323Z,5.00
2023-03-28T21:09:27.165Z,3.87
2023-03-28T21:11:53.861Z,4.00
2023-03-28T21:14:20.546Z,3.80
2023-03-28T21:16:47.338Z,4.90
2023-03-28T21:19:15.407Z,6.23
2023-03-28T21:21:42.110Z,4.87
2023-03-28T21:24:08.929Z,5.13
2023-03-28T21:26:35.827Z,5.03
2023-03-28T21:29:02.593Z,3.70
2023-03-28T21:31:29.564Z,3.87
2023-03-28T21:33:57.817Z,4.30
2023-03-28T21:36:26.897Z,5.77
2023-03-28T21:38:54.072Z,5.50
2023-03-28T21:41:21.148Z,3.97
2023-03-28T21:43:47.848Z,5.10
2023-03-28T21:46:14.549Z,4.60
2023-03-28T21:48:41.472Z,5.30
2023-03-28T21:51:08.222Z,5.80
2023-03-28T21:53:37.638Z,5.20
2023-03-28T21:56:05.605Z,5.97
2023-03-28T21:58:32.759Z,4.23
2023-03-28T22:01:00.588Z,6.00
2023-03-28T22:03:28.054Z,5.30
2023-03-28T22:05:55.097Z,3.60
2023-03-28T22:08:22.789Z,3.60
2023-03-28T22:10:53.323Z,4.03
2023-03-28T22:13:21.281Z,4.23
2023-03-28T22:15:48.100Z,3.90
2023-03-28T22:18:14.943Z,3.67
2023-03-28T22:20:41.991Z,4.77
2023-03-28T22:23:09.565Z,3.67
2023-03-28T22:25:37.017Z,3.27
2023-03-28T22:28:08.583Z,3.30
2023-03-28T22:30:36.434Z,3.60
2023-03-28T22:33:03.376Z,3.30
2023-03-28T22:35:30.352Z,3.13
2023-03-28T22:37:57.214Z,3.17
2023-03-28T22:40:23.910Z,2.63
2023-03-28T22:42:50.667Z,3.33
2023-03-28T22:45:18.711Z,2.63
2023-03-28T22:47:45.509Z,2.07
2023-03-28T22:50:12.381Z,2.17
2023-03-28T22:52:39.072Z,2.30
2023-03-28T22:55:06.639Z,3.13
2023-03-28T22:57:33.379Z,3.07
2023-03-28T23:00:00.048Z,2.70
2023-03-28T23:02:28.396Z,3.60
2023-03-28T23:04:55.163Z,2.67
2023-03-28T23:07:21.850Z,3.50
2023-03-28T23:09:48.660Z,3.30
2023-03-28T23:12:15.469Z,2.70
2023-03-28T23:14:42.250Z,2.17
2023-03-28T23:17:08.900Z,2.10
2023-03-28T23:19:36.985Z,2.97
2023-03-28T23:22:03.652Z,2.80
2023-03-28T23:24:30.457Z,2.83
2023-03-28T23:26:57.138Z,3.20
2023-03-28T23:29:24.032Z,2.90
2023-03-28T23:31:50.773Z,2.93
2023-03-28T23:34:17.709Z,2.90
2023-03-28T23:36:45.713Z,2.87
2023-03-28T23:39:12.752Z,2.90
2023-03-28T23:41:39.504Z,2.60
2023-03-28T23:44:06.172Z,2.53
2023-03-28T23:46:32.999Z,2.47
2023-03-28T23:48:59.705Z,2.53
2023-03-28T23:51:26.402Z,2.87
2023-03-28T23:53:54.452Z,3.10
2023-03-28T23:56:21.143Z,2.27
2023-03-28T23:58:47.808Z,3.30
